X  Zamknij Lotniskowe dane METAR     LIPX Verona-Villafranca Valerio Catullo Airport
Temperatura
77°F Temperatura
55°F Punkt rosy
47% Wilgotność



Wiatr
6 MPH
10 KM/H
3 M/S
5 KTS



240°
WSW
Warunki bieżące

Czyste Czyste
Ciśnienie 1024.04 (hPa) - 30.24 (inHg)
Widoczność 6 (mil) - 9.7 (km)
Lotnisko
Kod lotniska LIPX

Położenie: Verona-Villafranca Valerio Catullo Airport
Odległość: 0 (mi)

Metar:
LIPX 131650Z 24005KT 210V280 CAVOK 25/13 Q1024

Czas: 13-04-2024 16:50 CEST